Time;durP1;ratioP1;P1;durP2;ratioP2;P2;SDS_P1;SDS_P2;PMS_P1;PMS_P2;Temp;Humidity;BMP_temperature;BMP_pressure;BME280_temperature;BME280_humidity;BME280_pressure;Samples;Min_cycle;Max_cycle;Signal;HPM_P1;HPM_P2
2023/04/23 00:01:16;;;;;;;;;;;;;;;17.38;38.84;99854.94;4957133;27;98204;-70
2023/04/23 00:03:43;;;;;;;;;;;;;;;17.35;38.66;99859.13;4959052;27;98075;-69
2023/04/23 00:06:10;;;;;;;;;;;;;;;17.33;38.87;99849.66;4944967;27;98235;-70
2023/04/23 00:08:39;;;;;;;;;;;;;;;17.31;38.67;99857.38;4951829;28;99585;-70
2023/04/23 00:11:06;;;;;;;;;;;;;;;17.29;38.89;99848.72;4925775;28;98146;-70
2023/04/23 00:13:34;;;;;;;;;;;;;;;17.28;38.76;99847.13;4924737;28;98312;-70
2023/04/23 00:16:00;;;;;;;;;;;;;;;17.27;38.76;99842.81;4926921;28;97967;-70
2023/04/23 00:18:28;;;;;;;;;;;;;;;17.23;38.96;99844.59;4937620;28;99894;-70
2023/04/23 00:20:55;;;;;;;;;;;;;;;17.22;38.66;99843.00;4936519;28;98814;-70
2023/04/23 00:23:22;;;;;;;;;;;;;;;17.20;38.79;99837.06;4921902;28;99158;-70
2023/04/23 00:25:49;;;;;;;;;;;;;;;17.19;38.81;99841.72;4925236;28;98008;-70
2023/04/23 00:28:16;;;;;;;;;;;;;;;17.16;38.87;99835.00;4923482;28;98159;-69
2023/04/23 00:30:43;;;;;;;;;;;;;;;17.15;38.90;99832.63;4941611;28;98043;-70
2023/04/23 00:33:10;;;;;;;;;;;;;;;17.13;38.88;99832.94;4920039;28;98303;-70
2023/04/23 00:35:38;;;;;;;;;;;;;;;17.12;38.84;99825.09;4918107;28;97918;-70
2023/04/23 00:38:05;;;;;;;;;;;;;;;17.10;38.92;99828.16;4922111;28;98065;-70
2023/04/23 00:40:34;;;;;;;;;;;;;;;17.09;38.85;99831.19;4922949;28;100434;-70
2023/04/23 00:43:01;;;;;;;;;;;;;;;17.07;38.86;99828.00;4925778;28;98132;-70
2023/04/23 00:45:28;;;;;;;;;;;;;;;17.06;38.94;99834.56;4927753;28;98092;-69
2023/04/23 00:47:55;;;;;;;;;;;;;;;17.05;38.78;99832.97;4921600;28;98566;-70
2023/04/23 00:50:21;;;;;;;;;;;;;;;17.03;38.89;99833.28;4938878;28;97953;-70
2023/04/23 00:52:49;;;;;;;;;;;;;;;17.01;38.78;99832.81;4921380;28;98228;-70
2023/04/23 00:55:19;;;;;;;;;;;;;;;16.99;38.84;99826.91;4928799;28;98225;-70
2023/04/23 00:57:46;;;;;;;;;;;;;;;16.99;39.01;99831.56;4943235;28;98503;-70
2023/04/23 01:00:14;;;;;;;;;;;;;;;16.96;38.94;99830.28;4921759;28;97891;-70
2023/04/23 01:02:42;;;;;;;;;;;;;;;16.93;38.99;99834.44;4928570;28;97995;-69
2023/04/23 01:05:09;;;;;;;;;;;;;;;16.92;38.79;99835.56;4943851;28;98210;-70
2023/04/23 01:07:35;;;;;;;;;;;;;;;16.90;38.87;99840.53;4925466;28;99450;-70
2023/04/23 01:10:02;;;;;;;;;;;;;;;16.89;38.83;99835.41;4956055;27;117243;-69
2023/04/23 01:12:28;;;;;;;;;;;;;;;16.86;38.97;99834.16;4975547;27;98240;-70
2023/04/23 01:14:56;;;;;;;;;;;;;;;16.85;38.97;99831.75;4963422;27;98013;-70
2023/04/23 01:17:25;;;;;;;;;;;;;;;16.83;38.85;99834.00;4944222;27;98103;-71
2023/04/23 01:19:52;;;;;;;;;;;;;;;16.82;38.92;99835.09;4962680;27;98484;-70
2023/04/23 01:22:19;;;;;;;;;;;;;;;16.81;39.01;99830.78;4960669;28;98110;-70
2023/04/23 01:24:46;;;;;;;;;;;;;;;16.80;39.02;99832.72;4944437;27;98203;-70
2023/04/23 01:27:12;;;;;;;;;;;;;;;16.77;38.87;99829.84;4940113;27;98134;-70
2023/04/23 01:29:39;;;;;;;;;;;;;;;16.76;38.84;99830.97;4955243;28;98208;-70
2023/04/23 01:32:06;;;;;;;;;;;;;;;16.74;38.99;99842.19;4977874;27;98051;-70
2023/04/23 01:34:34;;;;;;;;;;;;;;;16.72;38.95;99833.50;4960378;28;99482;-70
2023/04/23 01:37:02;;;;;;;;;;;;;;;16.69;39.07;99843.09;4962032;27;98278;-70
2023/04/23 01:39:28;;;;;;;;;;;;;;;16.67;38.94;99834.47;4964653;28;97985;-70
2023/04/23 01:41:56;;;;;;;;;;;;;;;16.66;38.92;99832.88;4962578;27;99294;-70
2023/04/23 01:44:23;;;;;;;;;;;;;;;16.64;39.16;99837.84;4944464;28;98416;-70
2023/04/23 01:46:50;;;;;;;;;;;;;;;16.63;39.09;99838.16;4961931;28;98991;-70
2023/04/23 01:49:16;;;;;;;;;;;;;;;16.61;38.89;99841.19;4961679;28;99285;-70
2023/04/23 01:51:43;;;;;;;;;;;;;;;16.58;39.14;99830.16;4963655;27;98043;-70
2023/04/23 01:54:10;;;;;;;;;;;;;;;16.56;38.97;99841.38;4963055;27;99741;-70
2023/04/23 01:56:38;;;;;;;;;;;;;;;16.53;38.96;99828.41;4959288;27;98160;-70
2023/04/23 01:59:06;;;;;;;;;;;;;;;16.52;39.17;99832.25;4960669;27;98382;-71
2023/04/23 02:01:45;;;;;;;;;;;;;;;16.49;39.03;99835.63;4943598;28;99707;-70
2023/04/23 02:04:12;;;;;;;;;;;;;;;16.49;39.01;99829.38;4955093;28;100018;-70
2023/04/23 02:06:39;;;;;;;;;;;;;;;16.46;38.98;99830.81;4941093;28;98440;-70
2023/04/23 02:09:06;;;;;;;;;;;;;;;16.45;39.01;99826.50;4944560;28;98327;-70
2023/04/23 02:11:33;;;;;;;;;;;;;;;16.43;39.11;99832.28;4929682;28;98208;-70
2023/04/23 02:14:00;;;;;;;;;;;;;;;16.41;39.15;99828.25;4944154;28;97965;-70
2023/04/23 02:16:27;;;;;;;;;;;;;;;16.38;39.15;99826.97;4955708;28;99875;-70
2023/04/23 02:18:54;;;;;;;;;;;;;;;16.37;39.21;99824.59;4946750;28;98300;-70
2023/04/23 02:21:23;;;;;;;;;;;;;;;16.35;38.98;99827.63;4942908;28;98081;-70
2023/04/23 02:23:50;;;;;;;;;;;;;;;16.33;39.14;99818.19;4924073;28;98118;-70
2023/04/23 02:26:17;;;;;;;;;;;;;;;16.32;39.32;99825.56;4957980;28;98060;-70
2023/04/23 02:28:44;;;;;;;;;;;;;;;16.35;39.03;99819.47;4928072;28;100259;-71
2023/04/23 02:31:12;;;;;;;;;;;;;;;16.41;39.16;99820.09;4927042;28;99201;-70
2023/04/23 02:33:38;;;;;;;;;;;;;;;16.46;39.15;99817.22;4959099;27;98146;-71
2023/04/23 02:36:05;;;;;;;;;;;;;;;16.51;39.16;99819.00;4923800;28;97889;-72
2023/04/23 02:38:31;;;;;;;;;;;;;;;16.54;39.09;99821.03;4920852;28;100903;-70
2023/04/23 02:40:58;;;;;;;;;;;;;;;16.57;39.15;99812.25;4924070;28;98081;-70
2023/04/23 02:43:24;;;;;;;;;;;;;;;16.58;39.03;99809.19;4923072;28;97897;-71
2023/04/23 02:45:50;;;;;;;;;;;;;;;16.58;38.96;99811.13;4923646;28;99056;-71
2023/04/23 02:48:17;;;;;;;;;;;;;;;16.59;39.02;99816.25;4924641;28;99518;-70
2023/04/23 02:50:45;;;;;;;;;;;;;;;16.58;39.10;99814.63;4926943;28;98187;-71
2023/04/23 02:53:12;;;;;;;;;;;;;;;16.56;39.16;99811.44;4941757;28;98148;-70
2023/04/23 02:55:39;;;;;;;;;;;;;;;16.56;39.30;99819.59;4928554;28;98232;-71
2023/04/23 02:58:06;;;;;;;;;;;;;;;16.54;39.27;99815.59;4945080;28;98219;-70
2023/04/23 03:00:32;;;;;;;;;;;;;;;16.53;39.18;99822.97;4927863;28;97983;-70
2023/04/23 03:02:59;;;;;;;;;;;;;;;16.51;39.32;99824.44;4941966;28;98017;-70
2023/04/23 03:05:26;;;;;;;;;;;;;;;16.49;39.38;99819.28;4927661;28;98312;-71
2023/04/23 03:07:53;;;;;;;;;;;;;;;16.46;39.18;99822.66;4945077;27;100832;-71
2023/04/23 03:10:20;;;;;;;;;;;;;;;16.43;39.38;99813.22;4964852;27;98356;-70
2023/04/23 03:12:46;;;;;;;;;;;;;;;16.40;39.43;99813.06;4962282;27;98169;-70
2023/04/23 03:15:13;;;;;;;;;;;;;;;16.37;39.21;99802.84;4958926;27;97894;-70
2023/04/23 03:17:40;;;;;;;;;;;;;;;16.34;39.34;99806.19;4955812;27;98720;-71
2023/04/23 03:20:10;;;;;;;;;;;;;;;16.31;39.28;99812.25;4962043;27;98070;-70
2023/04/23 03:22:36;;;;;;;;;;;;;;;16.28;39.44;99808.28;4947647;27;98018;-70
2023/04/23 03:25:03;;;;;;;;;;;;;;;16.24;39.32;99804.59;4974993;27;98941;-70
2023/04/23 03:27:30;;;;;;;;;;;;;;;16.22;39.33;99806.03;4962514;27;99877;-71
2023/04/23 03:29:56;;;;;;;;;;;;;;;16.20;39.50;99811.81;4964039;27;98096;-71
2023/04/23 03:32:22;;;;;;;;;;;;;;;16.17;39.34;99809.72;4959281;27;98042;-70
2023/04/23 03:34:50;;;;;;;;;;;;;;;16.14;39.29;99807.63;4940655;27;98404;-70
2023/04/23 03:37:17;;;;;;;;;;;;;;;16.11;39.37;99806.38;4959428;27;98363;-70
2023/04/23 03:39:45;;;;;;;;;;;;;;;16.10;39.30;99804.75;4943128;27;98381;-71
2023/04/23 03:42:12;;;;;;;;;;;;;;;16.07;39.40;99813.56;4942980;27;98036;-71
2023/04/23 03:44:39;;;;;;;;;;;;;;;16.05;39.36;99812.28;4958566;27;98841;-71
2023/04/23 03:47:05;;;;;;;;;;;;;;;16.02;39.35;99802.84;4946142;27;98080;-70
2023/04/23 03:49:34;;;;;;;;;;;;;;;16.01;39.53;99801.25;4948857;27;99656;-71
2023/04/23 03:52:01;;;;;;;;;;;;;;;15.99;39.44;99808.91;4960149;27;98614;-70
2023/04/23 03:54:27;;;;;;;;;;;;;;;15.97;39.11;99811.16;4961084;27;98198;-70
2023/04/23 03:56:56;;;;;;;;;;;;;;;15.95;39.41;99805.22;4957908;27;98743;-72
2023/04/23 03:59:22;;;;;;;;;;;;;;;15.94;39.33;99801.72;4962625;27;98400;-70
2023/04/23 04:01:49;;;;;;;;;;;;;;;15.92;39.44;99803.97;4959948;27;97898;-70
2023/04/23 04:04:16;;;;;;;;;;;;;;;15.92;39.49;99805.88;4958810;27;98054;-70
2023/04/23 04:06:44;;;;;;;;;;;;;;;15.91;39.63;99799.63;4961738;27;97936;-71
2023/04/23 04:09:11;;;;;;;;;;;;;;;15.91;39.47;99799.63;4957602;27;98073;-71
2023/04/23 04:11:38;;;;;;;;;;;;;;;15.93;39.25;99808.28;4963462;27;98055;-71
2023/04/23 04:14:04;;;;;;;;;;;;;;;15.91;39.41;99802.34;4960637;27;99572;-71
2023/04/23 04:16:31;;;;;;;;;;;;;;;15.93;39.36;99810.19;4945550;27;98005;-72
2023/04/23 04:18:58;;;;;;;;;;;;;;;15.93;39.40;99808.28;4966760;27;97843;-71
2023/04/23 04:21:24;;;;;;;;;;;;;;;15.94;39.43;99801.72;4961697;27;97958;-71
2023/04/23 04:23:52;;;;;;;;;;;;;;;15.95;39.21;99800.63;4964819;27;98315;-71
2023/04/23 04:26:19;;;;;;;;;;;;;;;15.96;39.24;99795.97;4947531;27;98074;-71
2023/04/23 04:28:46;;;;;;;;;;;;;;;15.97;39.30;99794.06;4948507;27;97953;-70
2023/04/23 04:31:16;;;;;;;;;;;;;;;15.99;39.44;99783.66;4959487;27;98192;-71
2023/04/23 04:33:42;;;;;;;;;;;;;;;16.01;39.17;99787.66;4949662;27;97999;-71
2023/04/23 04:36:08;;;;;;;;;;;;;;;16.03;39.27;99785.41;4956670;27;99932;-70
2023/04/23 04:38:38;;;;;;;;;;;;;;;16.05;39.39;99783.19;4966217;27;98144;-71
2023/04/23 04:41:04;;;;;;;;;;;;;;;16.09;39.23;99781.41;4943385;27;97976;-71
2023/04/23 04:43:31;;;;;;;;;;;;;;;16.15;39.38;99784.75;4948867;27;98001;-71
2023/04/23 04:45:58;;;;;;;;;;;;;;;16.20;39.12;99779.97;4944334;27;98084;-71
2023/04/23 04:48:24;;;;;;;;;;;;;;;16.27;39.16;99782.22;4972689;27;99408;-71
2023/04/23 04:50:51;;;;;;;;;;;;;;;16.32;39.27;99781.25;4949234;27;98103;-72
2023/04/23 04:53:17;;;;;;;;;;;;;;;16.37;39.17;99787.31;4962696;27;99658;-71
2023/04/23 04:55:43;;;;;;;;;;;;;;;16.44;39.06;99805.88;4948449;27;99076;-71
2023/04/23 04:58:09;;;;;;;;;;;;;;;16.49;39.05;99804.91;4958656;27;98306;-72
2023/04/23 05:00:36;;;;;;;;;;;;;;;16.54;39.02;99810.97;4947400;27;97859;-71
2023/04/23 05:03:04;;;;;;;;;;;;;;;16.58;39.07;99809.19;4961898;27;98330;-71
2023/04/23 05:05:32;;;;;;;;;;;;;;;16.62;38.97;99810.16;4955540;27;97996;-71
2023/04/23 05:08:01;;;;;;;;;;;;;;;16.66;39.03;99804.84;4943901;27;98157;-71
2023/04/23 05:10:28;;;;;;;;;;;;;;;16.71;39.13;99803.91;4963428;27;98782;-71
2023/04/23 05:12:55;;;;;;;;;;;;;;;16.76;39.00;99807.28;4952132;27;98893;-71
2023/04/23 05:15:22;;;;;;;;;;;;;;;16.79;39.04;99806.63;4932940;27;98251;-73
2023/04/23 05:17:50;;;;;;;;;;;;;;;16.84;39.01;99808.38;4962096;27;98788;-71
2023/04/23 05:20:17;;;;;;;;;;;;;;;16.88;39.13;99810.13;4962805;27;98326;-71
2023/04/23 05:22:44;;;;;;;;;;;;;;;16.93;38.94;99809.13;4934291;27;99596;-72
2023/04/23 05:25:13;;;;;;;;;;;;;;;17.00;38.83;99812.16;4961332;27;98005;-71
2023/04/23 05:27:39;;;;;;;;;;;;;;;17.10;38.98;99808.28;4963323;27;97950;-71
2023/04/23 05:30:08;;;;;;;;;;;;;;;17.13;38.84;99808.44;4944013;27;98361;-71
2023/04/23 05:32:36;;;;;;;;;;;;;;;17.20;38.77;99809.84;4943628;27;99337;-71
2023/04/23 05:35:02;;;;;;;;;;;;;;;17.28;38.69;99807.06;4963328;27;99543;-71
2023/04/23 05:37:29;;;;;;;;;;;;;;;17.42;38.77;99804.13;4944230;27;98365;-71
2023/04/23 05:39:56;;;;;;;;;;;;;;;17.60;38.70;99807.53;4963245;27;98010;-72
2023/04/23 05:42:23;;;;;;;;;;;;;;;17.74;38.62;99807.31;4946020;27;98242;-71
2023/04/23 05:44:49;;;;;;;;;;;;;;;17.92;38.27;99806.09;4961273;27;98012;-71
2023/04/23 05:47:15;;;;;;;;;;;;;;;18.26;38.26;99804.22;4947953;27;99756;-71
2023/04/23 05:49:43;;;;;;;;;;;;;;;18.57;38.03;99804.56;4962657;27;98786;-71
2023/04/23 05:52:10;;;;;;;;;;;;;;;18.86;37.65;99797.38;4938452;27;98502;-71
2023/04/23 05:54:36;;;;;;;;;;;;;;;18.89;38.16;99802.94;4942670;27;98272;-73
2023/04/23 05:57:04;;;;;;;;;;;;;;;18.89;38.20;99810.34;4939485;27;98306;-71
2023/04/23 05:59:31;;;;;;;;;;;;;;;18.94;38.16;99812.84;4939582;27;98341;-71
2023/04/23 06:01:58;;;;;;;;;;;;;;;18.98;38.33;99805.59;4956427;27;98431;-72
2023/04/23 06:04:24;;;;;;;;;;;;;;;19.01;38.40;99815.81;4938500;27;98114;-71
2023/04/23 06:06:50;;;;;;;;;;;;;;;18.98;38.30;99805.59;4959728;27;98051;-72
2023/04/23 06:09:17;;;;;;;;;;;;;;;19.02;38.37;99811.16;4954648;27;98301;-71
2023/04/23 06:11:44;;;;;;;;;;;;;;;19.07;38.36;99810.97;4940069;27;98170;-71
2023/04/23 06:14:10;;;;;;;;;;;;;;;19.15;38.42;99801.06;4941234;27;98463;-71
2023/04/23 06:16:37;;;;;;;;;;;;;;;19.22;38.36;99813.03;4944668;27;98164;-72
2023/04/23 06:19:03;;;;;;;;;;;;;;;19.25;38.33;99806.06;4957900;27;98180;-71
2023/04/23 06:21:31;;;;;;;;;;;;;;;19.31;38.45;99810.19;4959985;27;101153;-72
2023/04/23 06:23:57;;;;;;;;;;;;;;;19.35;38.25;99811.88;4942614;27;99051;-72
2023/04/23 06:26:23;;;;;;;;;;;;;;;19.38;38.34;99815.88;4940166;27;98211;-73
2023/04/23 06:28:50;;;;;;;;;;;;;;;19.43;38.35;99812.91;4939914;27;98162;-71
2023/04/23 06:31:17;;;;;;;;;;;;;;;19.47;38.38;99807.56;4954991;27;98652;-71
2023/04/23 06:33:43;;;;;;;;;;;;;;;19.55;38.27;99821.09;4961285;27;97967;-71
2023/04/23 06:36:10;;;;;;;;;;;;;;;19.67;38.30;99817.59;4943280;27;100234;-72
2023/04/23 06:38:37;;;;;;;;;;;;;;;19.90;38.12;99812.41;4943712;27;98461;-73
2023/04/23 06:41:04;;;;;;;;;;;;;;;19.98;38.27;99818.91;4960738;27;98134;-72
2023/04/23 06:43:31;;;;;;;;;;;;;;;20.32;37.79;99809.34;4956565;27;98057;-71
2023/04/23 06:45:58;;;;;;;;;;;;;;;20.84;37.42;99813.91;4961019;27;100072;-73
2023/04/23 06:48:25;;;;;;;;;;;;;;;21.36;37.10;99806.59;4971976;27;97988;-71
2023/04/23 06:50:52;;;;;;;;;;;;;;;21.48;37.13;99803.75;4937689;27;98655;-71
2023/04/23 06:53:19;;;;;;;;;;;;;;;21.75;37.05;99804.75;4944451;27;98295;-73
2023/04/23 06:55:45;;;;;;;;;;;;;;;22.30;36.66;99805.53;4939458;27;100450;-74
2023/04/23 06:58:12;;;;;;;;;;;;;;;22.92;36.13;99800.84;4939279;27;97983;-71
2023/04/23 07:00:39;;;;;;;;;;;;;;;23.53;35.67;99799.84;4945579;27;98290;-74
2023/04/23 07:03:06;;;;;;;;;;;;;;;23.72;35.91;99801.72;4954997;27;98121;-74
2023/04/23 07:05:32;;;;;;;;;;;;;;;23.91;36.10;99803.56;4959858;27;98158;-72
2023/04/23 07:07:59;;;;;;;;;;;;;;;24.04;36.08;99801.34;4945675;27;98292;-74
2023/04/23 07:10:26;;;;;;;;;;;;;;;24.32;36.24;99809.16;4961182;27;98058;-75
2023/04/23 07:12:53;;;;;;;;;;;;;;;24.84;35.67;99801.88;4959322;27;98558;-72
2023/04/23 07:15:19;;;;;;;;;;;;;;;25.08;36.02;99810.75;4957794;27;97744;-75
2023/04/23 07:17:45;;;;;;;;;;;;;;;24.94;36.05;99816.91;4961867;27;98546;-72
2023/04/23 07:20:12;;;;;;;;;;;;;;;24.81;36.60;99818.38;4963272;27;98346;-72
2023/04/23 07:22:38;;;;;;;;;;;;;;;24.83;36.58;99816.81;4955382;27;98344;-75
2023/04/23 07:25:07;;;;;;;;;;;;;;;24.59;36.99;99815.41;4944220;27;97986;-75
2023/04/23 07:27:35;;;;;;;;;;;;;;;24.35;37.12;99818.63;4978947;27;98606;-75
2023/04/23 07:30:02;;;;;;;;;;;;;;;24.07;37.39;99828.13;4957974;27;98283;-74
2023/04/23 07:32:28;;;;;;;;;;;;;;;23.80;37.50;99827.38;4937353;27;99411;-72
2023/04/23 07:34:56;;;;;;;;;;;;;;;23.55;37.98;99832.50;4957860;27;98117;-72
2023/04/23 07:37:22;;;;;;;;;;;;;;;23.33;37.82;99830.56;4957275;27;98117;-71
2023/04/23 07:39:49;;;;;;;;;;;;;;;23.15;38.11;99833.81;4943175;27;98029;-72
2023/04/23 07:42:15;;;;;;;;;;;;;;;23.06;37.91;99837.97;4942675;27;98134;-71
2023/04/23 07:44:42;;;;;;;;;;;;;;;23.07;37.94;99829.38;4942902;27;98769;-75
2023/04/23 07:47:08;;;;;;;;;;;;;;;23.10;37.99;99836.06;4953611;27;98482;-74
2023/04/23 07:49:38;;;;;;;;;;;;;;;23.08;38.02;99844.69;4960553;27;98773;-74
2023/04/23 07:52:05;;;;;;;;;;;;;;;23.20;37.83;99847.25;4959712;27;98688;-74
2023/04/23 07:54:32;;;;;;;;;;;;;;;23.25;37.75;99846.13;4959794;27;98142;-72
2023/04/23 07:56:59;;;;;;;;;;;;;;;23.18;37.63;99852.31;4961577;27;97954;-74
2023/04/23 07:59:25;;;;;;;;;;;;;;;23.10;37.82;99850.59;4933771;27;98355;-75
2023/04/23 08:01:51;;;;;;;;;;;;;;;23.01;37.93;99847.31;4943787;27;98150;-72
2023/04/23 08:04:18;;;;;;;;;;;;;;;22.88;38.06;99857.66;4934890;27;99392;-74
2023/04/23 08:06:47;;;;;;;;;;;;;;;22.75;38.18;99857.03;4937575;27;98238;-74
2023/04/23 08:09:14;;;;;;;;;;;;;;;22.64;38.23;99863.47;4955684;27;98246;-75
2023/04/23 08:11:42;;;;;;;;;;;;;;;22.48;38.36;99858.84;4934885;27;98399;-72
2023/04/23 08:14:08;;;;;;;;;;;;;;;22.36;38.46;99858.19;4955458;27;98205;-72
2023/04/23 08:16:35;;;;;;;;;;;;;;;22.28;38.40;99869.03;4959883;27;97886;-72
2023/04/23 08:19:03;;;;;;;;;;;;;;;22.33;38.56;99864.41;4942105;27;98436;-75
2023/04/23 08:21:31;;;;;;;;;;;;;;;22.46;38.14;99865.84;4944172;27;98422;-72
2023/04/23 08:24:01;;;;;;;;;;;;;;;22.63;38.00;99868.16;4954031;27;98139;-72
2023/04/23 08:26:28;;;;;;;;;;;;;;;23.01;37.54;99861.84;4950973;27;97974;-74
2023/04/23 08:28:55;;;;;;;;;;;;;;;23.82;37.02;99862.78;4940213;27;97990;-72
2023/04/23 08:31:21;;;;;;;;;;;;;;;25.16;35.76;99859.31;4954351;27;100274;-75
2023/04/23 08:33:49;;;;;;;;;;;;;;;25.25;36.06;99859.75;4958048;27;98192;-72
2023/04/23 08:36:15;;;;;;;;;;;;;;;25.33;36.28;99861.41;4942115;27;97989;-72
2023/04/23 08:38:42;;;;;;;;;;;;;;;25.58;36.27;99861.59;4956557;27;101042;-75
2023/04/23 08:41:11;;;;;;;;;;;;;;;25.51;36.33;99869.06;4956016;27;98766;-72
2023/04/23 08:43:53;;;;;;;;;;;;;;;26.58;35.50;99864.94;4957989;27;98231;-72
2023/04/23 08:46:20;;;;;;;;;;;;;;;26.90;35.43;99858.72;4942469;27;98100;-76
2023/04/23 08:48:49;;;;;;;;;;;;;;;27.38;35.21;99861.94;4954120;27;98335;-77
2023/04/23 08:51:19;;;;;;;;;;;;;;;26.94;35.69;99862.28;4954976;27;97962;-77
2023/04/23 08:53:47;;;;;;;;;;;;;;;26.85;35.99;99864.63;4968569;27;99580;-72
2023/04/23 08:56:14;;;;;;;;;;;;;;;26.75;36.27;99866.16;4941018;27;98372;-73
2023/04/23 08:58:42;;;;;;;;;;;;;;;27.78;35.29;99878.53;4959984;27;98664;-75
2023/04/23 09:01:08;;;;;;;;;;;;;;;27.70;35.45;99869.41;4939487;27;97998;-73
2023/04/23 09:03:35;;;;;;;;;;;;;;;27.27;36.12;99886.03;4946558;27;98586;-72
2023/04/23 09:06:01;;;;;;;;;;;;;;;27.50;36.06;99876.56;4971855;27;98305;-73
2023/04/23 09:08:28;;;;;;;;;;;;;;;29.13;34.15;99871.66;4963092;27;98612;-73
2023/04/23 09:10:57;;;;;;;;;;;;;;;29.44;34.45;99869.84;4945386;27;100360;-77
2023/04/23 09:13:25;;;;;;;;;;;;;;;29.23;34.88;99870.78;4962974;27;98235;-76
2023/04/23 09:15:52;;;;;;;;;;;;;;;28.35;36.09;99864.53;4962929;27;98191;-73
2023/04/23 09:18:18;;;;;;;;;;;;;;;27.75;36.53;99868.28;4947505;27;98522;-73
2023/04/23 09:20:46;;;;;;;;;;;;;;;27.42;36.81;99875.75;4955842;27;97961;-76
2023/04/23 09:23:20;;;;;;;;;;;;;;;27.41;36.64;99872.22;4940471;27;98533;-77
2023/04/23 09:25:47;;;;;;;;;;;;;;;26.87;37.12;99876.84;4958371;27;98095;-76
2023/04/23 09:28:17;;;;;;;;;;;;;;;26.86;37.16;99871.72;4956507;27;98371;-75
2023/04/23 09:30:45;;;;;;;;;;;;;;;26.54;37.34;99871.66;4957902;27;98226;-75
2023/04/23 09:33:15;;;;;;;;;;;;;;;26.60;37.05;99873.63;4945293;27;97979;-76
2023/04/23 09:35:42;;;;;;;;;;;;;;;28.52;35.02;99883.06;4977906;27;98430;-76
2023/04/23 09:38:09;;;;;;;;;;;;;;;28.55;35.35;99868.41;4956744;27;100445;-73
2023/04/23 09:40:36;;;;;;;;;;;;;;;27.82;36.51;99877.31;4945897;27;98097;-75
2023/04/23 09:43:04;;;;;;;;;;;;;;;27.09;36.97;99880.47;4956893;27;98123;-75
2023/04/23 09:45:31;;;;;;;;;;;;;;;26.56;37.53;99878.34;4961132;27;98335;-70
2023/04/23 09:47:58;;;;;;;;;;;;;;;26.48;37.42;99876.75;4978256;27;100004;-70
2023/04/23 09:50:34;;;;;;;;;;;;;;;26.86;37.09;99871.72;4963034;27;98163;-70
2023/04/23 09:53:00;;;;;;;;;;;;;;;27.36;36.55;99869.84;4977271;27;98113;-70
2023/04/23 09:55:34;;;;;;;;;;;;;;;27.75;36.39;99871.81;4946305;27;98553;-70
2023/04/23 09:58:01;;;;;;;;;;;;;;;27.37;36.73;99873.41;4963498;27;98106;-70
2023/04/23 10:00:29;;;;;;;;;;;;;;;27.08;37.24;99867.03;4955002;27;98909;-70
2023/04/23 10:02:56;;;;;;;;;;;;;;;26.83;37.40;99873.28;4974742;27;99221;-70
2023/04/23 10:05:22;;;;;;;;;;;;;;;26.72;37.55;99874.44;4961804;27;98217;-71
2023/04/23 10:07:49;;;;;;;;;;;;;;;26.64;37.45;99871.66;4956534;27;98381;-70
2023/04/23 10:10:16;;;;;;;;;;;;;;;26.51;37.81;99870.44;4959085;27;98394;-70
2023/04/23 10:12:42;;;;;;;;;;;;;;;26.29;37.91;99869.56;4941826;27;98480;-70
2023/04/23 10:15:09;;;;;;;;;;;;;;;26.09;38.03;99873.78;4948928;27;98004;-70
2023/04/23 10:17:36;;;;;;;;;;;;;;;25.91;38.19;99880.00;4944194;27;98532;-70
2023/04/23 10:20:02;;;;;;;;;;;;;;;25.76;38.44;99872.75;4965584;27;98976;-70
2023/04/23 10:22:29;;;;;;;;;;;;;;;25.60;38.22;99870.28;4962299;27;98052;-71
2023/04/23 10:24:57;;;;;;;;;;;;;;;25.46;38.41;99868.19;4962615;27;98098;-70
2023/04/23 10:27:29;;;;;;;;;;;;;;;25.42;38.56;99872.91;4956828;27;98915;-70
2023/04/23 10:29:57;;;;;;;;;;;;;;;25.43;38.35;99879.22;4944545;27;98144;-69
2023/04/23 10:32:23;;;;;;;;;;;;;;;25.61;38.10;99877.38;4955215;27;102114;-70
2023/04/23 10:34:50;;;;;;;;;;;;;;;26.06;37.57;99880.09;4954074;27;98241;-70
2023/04/23 10:37:19;;;;;;;;;;;;;;;27.12;36.53;99876.16;4955283;27;98830;-70
2023/04/23 10:39:48;;;;;;;;;;;;;;;27.08;36.66;99878.88;4943522;27;98103;-70
2023/04/23 10:42:15;;;;;;;;;;;;;;;28.49;35.50;99872.81;4971026;27;98895;-70
2023/04/23 10:44:42;;;;;;;;;;;;;;;29.54;34.51;99873.72;4939980;27;98342;-71
2023/04/23 10:47:15;;;;;;;;;;;;;;;28.95;35.50;99882.06;4943582;27;99821;-71
2023/04/23 10:49:44;;;;;;;;;;;;;;;28.45;36.64;99888.66;4959633;27;98327;-71
2023/04/23 10:52:14;;;;;;;;;;;;;;;27.79;37.41;99891.19;4937080;27;98203;-70
2023/04/23 10:54:42;;;;;;;;;;;;;;;27.25;37.70;99902.25;4942565;27;98253;-70
2023/04/23 10:57:09;;;;;;;;;;;;;;;26.77;38.08;99897.00;4963017;27;98205;-70
2023/04/23 10:59:39;;;;;;;;;;;;;;;26.39;38.38;99888.13;4955981;27;98053;-70
2023/04/23 11:02:05;;;;;;;;;;;;;;;26.25;38.46;99890.03;4954597;27;98244;-70
2023/04/23 11:04:35;;;;;;;;;;;;;;;26.51;37.95;99889.78;4976959;27;98353;-69
2023/04/23 11:07:08;;;;;;;;;;;;;;;26.29;38.17;99907.41;4943060;27;119571;-69
2023/04/23 11:09:37;;;;;;;;;;;;;;;26.03;38.21;99906.50;4978194;27;97981;-70
2023/04/23 11:12:25;;;;;;;;;;;;;;;25.82;38.41;99911.84;4990124;27;98297;-70
2023/04/23 11:14:55;;;;;;;;;;;;;;;25.60;38.63;99917.19;4953750;27;98019;-71
2023/04/23 11:17:30;;;;;;;;;;;;;;;25.38;38.80;99918.19;4954423;27;99290;-70
2023/04/23 11:20:12;;;;;;;;;;;;;;;25.22;38.78;99918.44;4975155;27;99541;-69
2023/04/23 11:22:58;;;;;;;;;;;;;;;25.02;38.66;99914.25;4958481;27;98388;-69
2023/04/23 11:25:26;;;;;;;;;;;;;;;24.87;39.04;99905.03;4959183;27;98656;-69
2023/04/23 11:27:53;;;;;;;;;;;;;;;24.78;38.88;99905.34;4945330;27;98001;-69
2023/04/23 11:30:27;;;;;;;;;;;;;;;24.64;39.03;99905.97;4954700;27;99102;-70
2023/04/23 11:32:55;;;;;;;;;;;;;;;24.60;39.24;99909.84;4952776;27;98302;-70
2023/04/23 11:35:23;;;;;;;;;;;;;;;24.62;38.91;99902.78;4937415;27;98386;-69
2023/04/23 11:37:49;;;;;;;;;;;;;;;24.79;38.63;99901.41;4937555;27;98130;-69
2023/04/23 11:40:20;;;;;;;;;;;;;;;24.85;38.31;99910.94;4959048;27;97969;-70
2023/04/23 11:42:46;;;;;;;;;;;;;;;25.19;38.12;99913.66;4957179;27;98044;-69
2023/04/23 11:45:19;;;;;;;;;;;;;;;25.44;37.81;99903.66;4956187;27;98274;-70
2023/04/23 11:47:46;;;;;;;;;;;;;;;25.48;38.10;99916.69;4966932;27;98181;-69
2023/04/23 11:50:22;;;;;;;;;;;;;;;25.34;38.19;99912.63;4942949;27;98107;-69
2023/04/23 11:52:48;;;;;;;;;;;;;;;25.18;38.45;99909.31;4965263;27;98668;-69
2023/04/23 11:55:15;;;;;;;;;;;;;;;24.89;38.92;99914.53;4960494;27;98770;-69
2023/04/23 11:57:51;;;;;;;;;;;;;;;24.65;39.21;99915.03;4953853;27;98441;-70
2023/04/23 12:00:22;;;;;;;;;;;;;;;24.61;38.91;99903.97;4957171;27;98348;-70
2023/04/23 12:02:56;;;;;;;;;;;;;;;24.78;38.60;99899.84;4954913;27;98325;-69
2023/04/23 12:05:35;;;;;;;;;;;;;;;24.72;38.74;99904.91;4952588;27;98292;-69
2023/04/23 12:08:10;;;;;;;;;;;;;;;24.74;38.82;99907.25;4942320;27;99800;-70
2023/04/23 12:10:49;;;;;;;;;;;;;;;24.65;38.67;99910.31;4986097;27;98661;-69
2023/04/23 12:13:17;;;;;;;;;;;;;;;24.59;38.82;99905.50;4959412;27;98176;-69
2023/04/23 12:15:48;;;;;;;;;;;;;;;24.66;38.62;99902.84;4960659;27;98044;-69
2023/04/23 12:18:15;;;;;;;;;;;;;;;25.18;37.90;99903.81;4960587;27;98436;-69
2023/04/23 12:20:42;;;;;;;;;;;;;;;25.55;37.93;99906.53;4954720;27;99672;-69
2023/04/23 12:23:09;;;;;;;;;;;;;;;25.73;37.88;99903.09;4943280;27;98369;-69
2023/04/23 12:25:36;;;;;;;;;;;;;;;25.99;37.61;99905.69;4942526;27;98265;-70
2023/04/23 12:28:03;;;;;;;;;;;;;;;26.65;36.95;99902.88;4954008;27;98799;-70
2023/04/23 12:30:31;;;;;;;;;;;;;;;26.56;37.32;99903.22;4959818;27;99602;-70
2023/04/23 12:33:08;;;;;;;;;;;;;;;26.82;37.11;99895.81;4960675;27;98162;-70
2023/04/23 12:35:38;;;;;;;;;;;;;;;28.15;35.80;99900.22;4963308;27;98280;-70
2023/04/23 12:38:05;;;;;;;;;;;;;;;28.04;36.52;99897.47;4943575;27;99836;-70
2023/04/23 12:40:33;;;;;;;;;;;;;;;28.38;36.36;99902.56;4958259;27;98375;-70
2023/04/23 12:42:59;;;;;;;;;;;;;;;28.15;36.89;99891.91;4964340;27;98251;-70
2023/04/23 12:45:25;;;;;;;;;;;;;;;28.33;37.00;99902.91;4961401;27;98395;-70
2023/04/23 12:47:52;;;;;;;;;;;;;;;28.75;36.25;99901.97;4971582;27;98260;-70